createdAt,value
2023-01-20T00:01:29.625Z,99571.28
2023-01-20T00:03:58.086Z,99581.06
2023-01-20T00:06:30.176Z,99576.75
2023-01-20T00:09:00.382Z,99578.72
2023-01-20T00:11:29.038Z,99581.28
2023-01-20T00:13:58.562Z,99591.16
2023-01-20T00:16:26.775Z,99595.13
2023-01-20T00:18:54.732Z,99598.63
2023-01-20T00:21:22.525Z,99607.72
2023-01-20T00:23:50.348Z,99603.31
2023-01-20T00:26:20.486Z,99610.44
2023-01-20T00:28:48.606Z,99607.88
2023-01-20T00:31:19.164Z,99627.97
2023-01-20T00:33:48.017Z,99623.03
2023-01-20T00:36:18.271Z,99632.44
2023-01-20T00:38:46.038Z,99624.31
2023-01-20T00:41:14.145Z,99642.88
2023-01-20T00:43:41.407Z,99647.97
2023-01-20T00:46:09.842Z,99637.69
2023-01-20T00:48:37.881Z,99663.84
2023-01-20T00:51:06.673Z,99662.91
2023-01-20T00:53:34.686Z,99664.28
2023-01-20T00:56:02.364Z,99648.47
2023-01-20T00:58:29.710Z,99658.59
2023-01-20T01:00:58.945Z,99655.63
2023-01-20T01:03:28.165Z,99657.91
2023-01-20T01:06:06.423Z,99666.78
2023-01-20T01:08:35.069Z,99660.97
2023-01-20T01:11:03.055Z,99653.03
2023-01-20T01:13:31.313Z,99661.53
2023-01-20T01:15:58.969Z,99650.88
2023-01-20T01:18:26.208Z,99660.66
2023-01-20T01:20:53.803Z,99659.47
2023-01-20T01:23:21.064Z,99655.72
2023-01-20T01:25:48.629Z,99674.66
2023-01-20T01:28:16.127Z,99671.25
2023-01-20T01:30:43.713Z,99666.41
2023-01-20T01:33:11.157Z,99674.72
2023-01-20T01:35:38.745Z,99669.13
2023-01-20T01:38:06.012Z,99660.28
2023-01-20T01:40:34.492Z,99657.63
2023-01-20T01:43:01.764Z,99659.50
2023-01-20T01:45:30.735Z,99671.31
2023-01-20T01:48:03.287Z,99663.44
2023-01-20T01:50:35.881Z,99678.75
2023-01-20T01:53:03.404Z,99665.72
2023-01-20T01:55:35.290Z,99677.31
2023-01-20T01:58:05.269Z,99674.16
2023-01-20T02:00:33.085Z,99664.72
2023-01-20T02:03:00.940Z,99677.22
2023-01-20T02:05:30.790Z,99682.06
2023-01-20T02:07:59.317Z,99676.94
2023-01-20T02:10:27.001Z,99681.75
2023-01-20T02:12:54.829Z,99685.53
2023-01-20T02:15:30.544Z,99686.53
2023-01-20T02:18:03.949Z,99686.03
2023-01-20T02:20:57.639Z,99684.16
2023-01-20T02:23:47.942Z,99681.44
2023-01-20T02:26:37.965Z,99684.84
2023-01-20T02:29:30.072Z,99697.16
2023-01-20T02:31:57.457Z,99693.53
2023-01-20T02:34:46.113Z,99696.25
2023-01-20T02:37:25.573Z,99696.88
2023-01-20T02:40:08.433Z,99711.81
2023-01-20T02:42:47.147Z,99711.84
2023-01-20T02:45:34.239Z,99717.22
2023-01-20T02:48:31.727Z,99721.13
2023-01-20T02:51:01.974Z,99718.31
2023-01-20T02:53:44.934Z,99727.16
2023-01-20T02:56:13.048Z,99725.31
2023-01-20T02:58:50.305Z,99726.72
2023-01-20T03:01:25.187Z,99722.16
2023-01-20T03:03:57.850Z,99730.66
2023-01-20T03:06:28.818Z,99724.16
2023-01-20T03:08:58.899Z,99735.19
2023-01-20T03:11:27.587Z,99724.97
2023-01-20T03:13:55.070Z,99734.50
2023-01-20T03:16:25.209Z,99742.44
2023-01-20T03:18:54.473Z,99740.44
2023-01-20T03:21:22.547Z,99730.06
2023-01-20T03:23:55.895Z,99733.06
2023-01-20T03:26:23.984Z,99746.88
2023-01-20T03:28:52.148Z,99752.31
2023-01-20T03:31:29.896Z,99749.81
2023-01-20T03:34:00.388Z,99749.19
2023-01-20T03:36:30.232Z,99752.44
2023-01-20T03:38:59.516Z,99758.00
2023-01-20T03:41:55.912Z,99765.59
2023-01-20T03:44:41.684Z,99759.75
2023-01-20T03:47:34.568Z,99764.75
2023-01-20T03:50:11.279Z,99780.88
2023-01-20T03:52:48.721Z,99775.63
2023-01-20T03:55:23.045Z,99767.78
2023-01-20T03:58:08.068Z,99782.31
2023-01-20T04:00:41.002Z,99776.72
2023-01-20T04:03:15.395Z,99782.75
2023-01-20T04:05:44.368Z,99794.88
2023-01-20T04:08:14.854Z,99794.56
2023-01-20T04:10:45.664Z,99796.75
2023-01-20T04:13:13.076Z,99793.22
2023-01-20T04:15:45.596Z,99787.69
2023-01-20T04:18:13.757Z,99793.03
2023-01-20T04:20:42.139Z,99805.47
2023-01-20T04:23:17.933Z,99802.22
2023-01-20T04:25:45.848Z,99819.13
2023-01-20T04:28:13.077Z,99811.53
2023-01-20T04:30:40.702Z,99814.84
2023-01-20T04:33:07.976Z,99823.59
2023-01-20T04:35:35.661Z,99826.00
2023-01-20T04:38:02.983Z,99826.56
2023-01-20T04:40:30.673Z,99818.59
2023-01-20T04:42:57.991Z,99816.56
2023-01-20T04:45:25.608Z,99830.69
2023-01-20T04:47:52.935Z,99828.81
2023-01-20T04:50:20.571Z,99830.81
2023-01-20T04:52:48.253Z,99828.81
2023-01-20T04:55:16.230Z,99841.50
2023-01-20T04:57:43.728Z,99828.97
2023-01-20T05:00:12.138Z,99833.81
2023-01-20T05:02:39.441Z,99844.84
2023-01-20T05:05:07.335Z,99849.84
2023-01-20T05:07:34.807Z,99844.25
2023-01-20T05:10:02.349Z,99851.22
2023-01-20T05:12:29.742Z,99853.56
2023-01-20T05:14:57.397Z,99856.69
2023-01-20T05:17:24.638Z,99863.22
2023-01-20T05:19:52.153Z,99864.84
2023-01-20T05:22:19.454Z,99879.47
2023-01-20T05:24:46.974Z,99878.94
2023-01-20T05:27:14.344Z,99888.94
2023-01-20T05:29:41.870Z,99881.84
2023-01-20T05:32:09.103Z,99887.69
2023-01-20T05:34:36.645Z,99890.69
2023-01-20T05:37:03.837Z,99893.06
2023-01-20T05:39:31.372Z,99898.91
2023-01-20T05:41:58.712Z,99893.34
2023-01-20T05:44:26.334Z,99900.97
2023-01-20T05:46:53.629Z,99898.38
2023-01-20T05:49:21.197Z,99911.13
2023-01-20T05:51:48.644Z,99907.53
2023-01-20T05:54:16.293Z,99913.72
2023-01-20T05:56:43.619Z,99921.56
2023-01-20T05:59:11.252Z,99930.69
2023-01-20T06:01:38.607Z,99923.66
2023-01-20T06:04:06.633Z,99926.13
2023-01-20T06:06:34.044Z,99929.00
2023-01-20T06:09:01.849Z,99941.94
2023-01-20T06:11:29.596Z,99941.25
2023-01-20T06:13:57.118Z,99932.13
2023-01-20T06:16:24.424Z,99952.31
2023-01-20T06:18:51.985Z,99949.75
2023-01-20T06:21:19.270Z,99935.09
2023-01-20T06:23:47.003Z,99953.47
2023-01-20T06:26:15.099Z,99955.72
2023-01-20T06:28:43.141Z,99965.81
2023-01-20T06:31:15.918Z,99976.34
2023-01-20T06:33:44.164Z,99980.44
2023-01-20T06:36:17.660Z,99988.50
2023-01-20T06:38:50.746Z,99983.25
2023-01-20T06:41:19.638Z,99986.06
2023-01-20T06:43:47.615Z,100009.22
2023-01-20T06:46:16.230Z,100018.34
2023-01-20T06:48:45.277Z,100017.56
2023-01-20T06:51:15.527Z,100024.81
2023-01-20T06:53:43.752Z,100029.63
2023-01-20T06:56:12.941Z,100030.94
2023-01-20T06:58:41.292Z,100044.72
2023-01-20T07:01:20.731Z,100059.50
2023-01-20T07:03:48.395Z,100058.25
2023-01-20T07:06:20.143Z,100066.22
2023-01-20T07:08:47.820Z,100076.28
2023-01-20T07:11:15.060Z,100074.28
2023-01-20T07:13:43.279Z,100083.56
2023-01-20T07:16:14.409Z,100082.78
2023-01-20T07:18:47.582Z,100102.47
2023-01-20T07:21:14.944Z,100095.41
2023-01-20T07:23:42.505Z,100105.03
2023-01-20T07:26:12.398Z,100113.09
2023-01-20T07:28:40.779Z,100123.56
2023-01-20T07:31:19.224Z,100129.59
2023-01-20T07:33:47.190Z,100136.63
2023-01-20T07:36:15.755Z,100140.81
2023-01-20T07:38:43.334Z,100153.88
2023-01-20T07:41:16.017Z,100153.97
2023-01-20T07:43:45.100Z,100160.16
2023-01-20T07:46:13.686Z,100169.00
2023-01-20T07:48:41.687Z,100168.72
2023-01-20T07:51:12.137Z,100182.72
2023-01-20T07:53:43.654Z,100181.19
2023-01-20T07:56:15.536Z,100187.88
2023-01-20T07:58:47.676Z,100197.66
2023-01-20T08:01:18.402Z,100199.38
2023-01-20T08:03:46.476Z,100202.38
2023-01-20T08:06:16.778Z,100204.13
2023-01-20T08:08:44.658Z,100203.47
2023-01-20T08:11:14.174Z,100195.50
2023-01-20T08:13:42.203Z,100203.63
2023-01-20T08:16:12.376Z,100202.94
2023-01-20T08:18:40.762Z,100218.06
2023-01-20T08:21:16.460Z,100210.22
2023-01-20T08:23:44.032Z,100219.25
2023-01-20T08:26:11.394Z,100214.78
2023-01-20T08:28:38.935Z,100223.31
2023-01-20T08:31:09.123Z,100227.22
2023-01-20T08:33:37.179Z,100229.34
2023-01-20T08:36:13.456Z,100238.56
2023-01-20T08:38:42.244Z,100228.66
2023-01-20T08:41:18.338Z,100229.16
2023-01-20T08:43:45.940Z,100231.78
2023-01-20T08:46:15.398Z,100236.63
2023-01-20T08:48:44.349Z,100240.53
2023-01-20T08:51:15.940Z,100244.03
2023-01-20T08:53:43.912Z,100241.72
2023-01-20T08:56:12.642Z,100240.88
2023-01-20T08:58:40.550Z,100250.16
2023-01-20T09:01:12.098Z,100252.44
2023-01-20T09:03:40.967Z,100243.25
2023-01-20T09:06:09.319Z,100247.81
2023-01-20T09:08:38.069Z,100254.16
2023-01-20T09:11:11.258Z,100257.66
2023-01-20T09:13:39.440Z,100270.06
2023-01-20T09:16:07.270Z,100264.72
2023-01-20T09:18:35.538Z,100264.56
2023-01-20T09:21:06.748Z,100263.97
2023-01-20T09:23:36.835Z,100265.44
2023-01-20T09:26:05.935Z,100269.66
2023-01-20T09:28:34.480Z,100282.25
2023-01-20T09:31:05.537Z,100266.34
2023-01-20T09:33:36.211Z,100282.56
2023-01-20T09:36:04.467Z,100269.69
2023-01-20T09:38:50.502Z,100283.22
2023-01-20T09:41:49.864Z,100284.78
2023-01-20T09:44:43.090Z,100275.81
2023-01-20T09:47:26.191Z,100283.50
2023-01-20T09:50:30.367Z,100284.25
2023-01-20T09:53:32.787Z,100274.22
2023-01-20T09:56:09.086Z,100281.66
2023-01-20T09:59:07.071Z,100284.25
2023-01-20T10:01:40.956Z,100281.84
2023-01-20T10:04:17.518Z,100275.88
2023-01-20T10:06:50.374Z,100283.97
2023-01-20T10:09:26.286Z,100272.34
2023-01-20T10:12:09.673Z,100266.66
2023-01-20T10:15:18.691Z,100275.41
2023-01-20T10:17:59.636Z,100272.00
2023-01-20T10:20:41.731Z,100271.44
2023-01-20T10:23:17.691Z,100274.50
2023-01-20T10:25:53.338Z,100276.59
2023-01-20T10:28:29.306Z,100276.13
2023-01-20T10:31:00.956Z,100276.66
2023-01-20T10:33:35.417Z,100278.06
2023-01-20T10:36:02.945Z,100269.69
2023-01-20T10:38:43.253Z,100278.16
2023-01-20T10:41:21.548Z,100275.75
2023-01-20T10:43:49.098Z,100277.16
2023-01-20T10:46:28.248Z,100277.22
2023-01-20T10:49:18.434Z,100289.75
2023-01-20T10:51:54.412Z,100292.13
2023-01-20T10:54:30.965Z,100294.84
2023-01-20T10:56:59.667Z,100303.53
2023-01-20T10:59:53.538Z,100289.88
2023-01-20T11:02:32.135Z,100303.66
2023-01-20T11:05:18.717Z,100294.19
2023-01-20T11:07:47.685Z,100294.25
2023-01-20T11:10:20.216Z,100305.13
2023-01-20T11:12:50.830Z,100305.50
2023-01-20T11:15:22.019Z,100311.47
2023-01-20T11:18:15.386Z,100321.34
2023-01-20T11:20:56.090Z,100317.28
2023-01-20T11:23:27.209Z,100319.38
2023-01-20T11:25:57.796Z,100310.97
2023-01-20T11:28:25.816Z,100319.75
2023-01-20T11:30:56.354Z,100319.13
2023-01-20T11:33:26.587Z,100323.91
2023-01-20T11:36:17.801Z,100323.28
2023-01-20T11:38:49.814Z,100331.16
2023-01-20T11:41:26.183Z,100335.19
2023-01-20T11:43:56.368Z,100340.34
2023-01-20T11:46:27.049Z,100342.13
2023-01-20T11:49:24.631Z,100348.38
2023-01-20T11:51:56.929Z,100346.50
2023-01-20T11:54:29.498Z,100356.44
2023-01-20T11:57:01.790Z,100357.91
2023-01-20T11:59:31.797Z,100354.78
2023-01-20T12:02:06.964Z,100357.31
2023-01-20T12:04:41.560Z,100356.06
2023-01-20T12:07:24.366Z,100344.44
2023-01-20T12:09:55.302Z,100367.44
2023-01-20T12:13:00.215Z,100357.25
2023-01-20T12:15:32.477Z,100363.19
2023-01-20T12:18:08.229Z,100369.06
2023-01-20T12:20:54.597Z,100374.28
2023-01-20T12:23:47.786Z,100378.34
2023-01-20T12:26:17.408Z,100379.03
2023-01-20T12:28:53.949Z,100379.63
2023-01-20T12:31:24.145Z,100386.38
2023-01-20T12:33:59.036Z,100395.16
2023-01-20T12:36:32.570Z,100401.06
2023-01-20T12:39:02.879Z,100401.09
2023-01-20T12:41:48.873Z,100397.72
2023-01-20T12:44:51.844Z,100410.03
2023-01-20T12:47:37.319Z,100409.09
2023-01-20T12:50:23.623Z,100397.50
2023-01-20T12:53:17.065Z,100420.22
2023-01-20T12:56:22.990Z,100427.31
2023-01-20T12:59:06.344Z,100429.28
2023-01-20T13:01:55.466Z,100430.53
2023-01-20T13:04:25.311Z,100439.16
2023-01-20T13:07:08.008Z,100444.06
2023-01-20T13:09:49.980Z,100447.00
2023-01-20T13:12:36.230Z,100454.22
2023-01-20T13:15:36.656Z,100469.53
2023-01-20T13:18:18.530Z,100458.66
2023-01-20T13:20:46.724Z,100458.91
2023-01-20T13:23:18.465Z,100473.00
2023-01-20T13:25:47.548Z,100484.09
2023-01-20T13:28:18.336Z,100479.59
2023-01-20T13:30:50.937Z,100486.28
2023-01-20T13:33:33.133Z,100474.72
2023-01-20T13:36:14.414Z,100454.53
2023-01-20T13:38:43.096Z,100467.34
2023-01-20T13:41:11.048Z,100474.53
2023-01-20T13:43:44.447Z,100490.56
2023-01-20T13:46:34.207Z,100489.59
2023-01-20T13:49:13.891Z,100494.34
2023-01-20T13:51:46.086Z,100491.91
2023-01-20T13:54:25.617Z,100504.56
2023-01-20T13:56:53.146Z,100497.28
2023-01-20T13:59:20.745Z,100501.13
2023-01-20T14:01:48.183Z,100516.91
2023-01-20T14:04:18.713Z,100518.91
2023-01-20T14:06:47.904Z,100527.53
2023-01-20T14:09:23.753Z,100529.56
2023-01-20T14:11:53.203Z,100524.81
2023-01-20T14:14:24.600Z,100518.66
2023-01-20T14:16:52.885Z,100525.22
2023-01-20T14:19:32.449Z,100535.44
2023-01-20T14:22:20.544Z,100537.78
2023-01-20T14:24:49.747Z,100538.13
2023-01-20T14:27:16.902Z,100538.13
2023-01-20T14:29:45.242Z,100534.72
2023-01-20T14:32:31.399Z,100537.41
2023-01-20T14:34:59.784Z,100536.19
2023-01-20T14:37:30.103Z,100528.69
2023-01-20T14:40:00.805Z,100534.44
2023-01-20T14:42:29.296Z,100535.50
2023-01-20T14:44:57.769Z,100545.47
2023-01-20T14:47:27.051Z,100545.97
2023-01-20T14:49:55.418Z,100548.00
2023-01-20T14:52:28.768Z,100559.00
2023-01-20T14:54:57.174Z,100571.25
2023-01-20T14:57:34.977Z,100567.66
2023-01-20T15:00:11.712Z,100577.19
2023-01-20T15:02:41.301Z,100569.13
2023-01-20T15:05:31.591Z,100576.09
2023-01-20T15:08:19.180Z,100569.25
2023-01-20T15:10:47.894Z,100567.41
2023-01-20T15:13:26.647Z,100563.88
2023-01-20T15:16:20.957Z,100576.09
2023-01-20T15:19:17.628Z,100582.66
2023-01-20T15:21:46.130Z,100593.09
2023-01-20T15:24:34.680Z,100592.50
2023-01-20T15:27:04.157Z,100618.56
2023-01-20T15:29:36.709Z,100624.03
2023-01-20T15:32:12.774Z,100625.84
2023-01-20T15:34:40.099Z,100618.81
2023-01-20T15:37:18.479Z,100624.84
2023-01-20T15:39:45.789Z,100635.66
2023-01-20T15:42:15.389Z,100635.72
2023-01-20T15:44:42.753Z,100633.09
2023-01-20T15:47:21.767Z,100645.59
2023-01-20T15:49:49.218Z,100638.84
2023-01-20T15:52:16.757Z,100645.03
2023-01-20T15:54:44.050Z,100647.00
2023-01-20T15:57:16.972Z,100652.59
2023-01-20T15:59:49.691Z,100666.09
2023-01-20T16:02:23.183Z,100669.13
2023-01-20T16:04:50.968Z,100679.09
2023-01-20T16:07:21.194Z,100674.84
2023-01-20T16:09:48.673Z,100698.53
2023-01-20T16:12:18.541Z,100693.13
2023-01-20T16:14:46.164Z,100704.16
2023-01-20T16:17:19.277Z,100705.72
2023-01-20T16:19:47.494Z,100721.06
2023-01-20T16:22:15.044Z,100718.88
2023-01-20T16:24:42.795Z,100735.06
2023-01-20T16:27:21.542Z,100726.69
2023-01-20T16:29:49.421Z,100724.06
2023-01-20T16:32:18.787Z,100733.56
2023-01-20T16:34:47.696Z,100734.16
2023-01-20T16:37:15.206Z,100745.06
2023-01-20T16:39:42.552Z,100756.94
2023-01-20T16:42:15.233Z,100770.50
2023-01-20T16:44:42.443Z,100780.84
2023-01-20T16:47:09.971Z,100784.94
2023-01-20T16:49:37.289Z,100773.53
2023-01-20T16:52:05.064Z,100784.72
2023-01-20T16:54:32.339Z,100782.44
2023-01-20T16:56:59.872Z,100789.88
2023-01-20T16:59:27.141Z,100787.56
2023-01-20T17:01:54.750Z,100781.88
2023-01-20T17:04:22.157Z,100789.47
2023-01-20T17:06:52.779Z,100799.13
2023-01-20T17:09:20.153Z,100808.84
2023-01-20T17:11:47.691Z,100813.06
2023-01-20T17:14:15.684Z,100805.22
2023-01-20T17:16:43.426Z,100814.31
2023-01-20T17:19:11.145Z,100807.41
2023-01-20T17:21:39.469Z,100803.31
2023-01-20T17:24:07.476Z,100815.22
2023-01-20T17:26:37.104Z,100816.75
2023-01-20T17:29:05.369Z,100835.59
2023-01-20T17:31:36.490Z,100834.19
2023-01-20T17:34:04.931Z,100846.38
2023-01-20T17:36:35.987Z,100843.91
2023-01-20T17:39:04.292Z,100853.06
2023-01-20T17:41:32.742Z,100856.47
2023-01-20T17:44:00.232Z,100859.66
2023-01-20T17:46:29.850Z,100862.50
2023-01-20T17:48:58.737Z,100873.63
2023-01-20T17:51:28.853Z,100867.84
2023-01-20T17:53:57.975Z,100881.19
2023-01-20T17:56:25.934Z,100877.75
2023-01-20T17:58:54.095Z,100880.66
2023-01-20T18:01:27.218Z,100893.25
2023-01-20T18:03:56.417Z,100894.38
2023-01-20T18:06:25.465Z,100900.31
2023-01-20T18:08:55.592Z,100902.34
2023-01-20T18:11:24.964Z,100906.06
2023-01-20T18:13:55.376Z,100910.16
2023-01-20T18:16:28.586Z,100892.44
2023-01-20T18:18:59.003Z,100899.66
2023-01-20T18:21:31.651Z,100912.56
2023-01-20T18:24:00.035Z,100908.38
2023-01-20T18:26:30.004Z,100904.47
2023-01-20T18:29:00.089Z,100925.16
2023-01-20T18:31:29.545Z,100923.16
2023-01-20T18:34:02.139Z,100934.53
2023-01-20T18:36:35.797Z,100924.09
2023-01-20T18:39:12.775Z,100935.91
2023-01-20T18:41:40.549Z,100928.19
2023-01-20T18:44:08.140Z,100931.25
2023-01-20T18:46:36.281Z,100942.72
2023-01-20T18:49:05.821Z,100943.47
2023-01-20T18:51:34.980Z,100934.53
2023-01-20T18:54:07.847Z,100937.47
2023-01-20T18:56:35.889Z,100938.38
2023-01-20T18:59:04.800Z,100935.81
2023-01-20T19:01:39.821Z,100948.63
2023-01-20T19:04:10.208Z,100950.28
2023-01-20T19:06:40.656Z,100955.44
2023-01-20T19:09:08.728Z,100939.56
2023-01-20T19:11:39.714Z,100959.34
2023-01-20T19:14:09.482Z,100967.06
2023-01-20T19:16:39.232Z,100954.78
2023-01-20T19:19:07.901Z,100950.31
2023-01-20T19:21:36.584Z,100955.59
2023-01-20T19:24:07.642Z,100947.75
2023-01-20T19:26:37.682Z,100964.34
2023-01-20T19:29:07.938Z,100973.03
2023-01-20T19:31:38.121Z,100962.47
2023-01-20T19:34:06.833Z,100975.66
2023-01-20T19:36:35.209Z,100984.34
2023-01-20T19:39:02.664Z,100984.28
2023-01-20T19:41:36.109Z,100985.31
2023-01-20T19:44:06.721Z,100978.31
2023-01-20T19:46:37.010Z,100981.78
2023-01-20T19:49:04.693Z,100975.66
2023-01-20T19:51:32.392Z,100987.06
2023-01-20T19:54:01.194Z,100989.72
2023-01-20T19:56:34.225Z,100998.09
2023-01-20T19:59:02.529Z,100989.44
2023-01-20T20:01:33.127Z,100995.66
2023-01-20T20:04:05.678Z,100997.63
2023-01-20T20:06:38.959Z,100994.91
2023-01-20T20:09:12.177Z,100990.75
2023-01-20T20:11:40.428Z,101003.91
2023-01-20T20:14:11.320Z,101005.03
2023-01-20T20:16:39.101Z,100999.97
2023-01-20T20:19:08.491Z,101004.31
2023-01-20T20:21:36.292Z,100994.78
2023-01-20T20:24:05.408Z,101004.59
2023-01-20T20:26:35.809Z,101008.06
2023-01-20T20:29:05.203Z,101016.31
2023-01-20T20:31:34.399Z,101020.97
2023-01-20T20:34:03.249Z,101012.22
2023-01-20T20:36:32.962Z,101022.72
2023-01-20T20:39:01.729Z,101015.81
2023-01-20T20:41:31.887Z,101019.09
2023-01-20T20:44:00.893Z,101019.75
2023-01-20T20:46:29.770Z,101012.66
2023-01-20T20:49:02.153Z,101024.84
2023-01-20T20:51:33.082Z,101026.03
2023-01-20T20:54:03.155Z,101038.53
2023-01-20T20:56:34.142Z,101025.34
2023-01-20T20:59:03.643Z,101038.31
2023-01-20T21:01:33.868Z,101037.06
2023-01-20T21:04:02.554Z,101039.44
2023-01-20T21:06:30.890Z,101036.28
2023-01-20T21:09:01.392Z,101052.97
2023-01-20T21:11:29.377Z,101048.59
2023-01-20T21:13:56.836Z,101051.22
2023-01-20T21:16:26.213Z,101056.44
2023-01-20T21:18:57.853Z,101053.84
2023-01-20T21:21:25.863Z,101045.53
2023-01-20T21:23:56.089Z,101057.94
2023-01-20T21:26:25.901Z,101057.41
2023-01-20T21:28:54.667Z,101044.91
2023-01-20T21:31:26.692Z,101059.41
2023-01-20T21:33:58.439Z,101052.88
2023-01-20T21:36:26.895Z,101054.06
2023-01-20T21:38:54.482Z,101048.91
2023-01-20T21:41:22.197Z,101043.72
2023-01-20T21:44:08.059Z,101056.97
2023-01-20T21:46:40.451Z,101056.06
2023-01-20T21:49:27.168Z,101056.25
2023-01-20T21:52:14.218Z,101066.91
2023-01-20T21:54:42.091Z,101072.38
2023-01-20T21:57:09.695Z,101070.78
2023-01-20T21:59:37.504Z,101064.00
2023-01-20T22:02:05.786Z,101073.56
2023-01-20T22:04:34.863Z,101077.41
2023-01-20T22:07:02.511Z,101074.41
2023-01-20T22:09:29.916Z,101082.03
2023-01-20T22:11:57.571Z,101077.91
2023-01-20T22:14:24.851Z,101089.53
2023-01-20T22:16:52.409Z,101091.81
2023-01-20T22:19:19.645Z,101089.75
2023-01-20T22:21:47.299Z,101095.97
2023-01-20T22:24:14.549Z,101097.91
2023-01-20T22:26:42.125Z,101087.09
2023-01-20T22:29:09.594Z,101094.69
2023-01-20T22:31:37.205Z,101101.47
2023-01-20T22:34:06.375Z,101097.97
2023-01-20T22:36:34.360Z,101076.25
2023-01-20T22:39:03.147Z,101086.66
2023-01-20T22:41:31.278Z,101100.56
2023-01-20T22:43:58.958Z,101088.88
2023-01-20T22:46:28.894Z,101085.94
2023-01-20T22:48:58.182Z,101096.25
2023-01-20T22:51:28.478Z,101101.19
2023-01-20T22:53:57.196Z,101086.97
2023-01-20T22:56:26.950Z,101090.69
2023-01-20T22:58:56.716Z,101089.31
2023-01-20T23:01:30.888Z,101100.78
2023-01-20T23:04:00.873Z,101107.13
2023-01-20T23:06:30.795Z,101108.31
2023-01-20T23:08:59.406Z,101117.69
2023-01-20T23:11:27.098Z,101106.81
2023-01-20T23:13:54.552Z,101120.22
2023-01-20T23:16:23.023Z,101129.97
2023-01-20T23:18:51.478Z,101124.81
2023-01-20T23:21:20.185Z,101122.97
2023-01-20T23:23:54.148Z,101125.91
2023-01-20T23:26:24.157Z,101144.88
2023-01-20T23:28:53.586Z,101142.13
2023-01-20T23:31:23.683Z,101133.81
2023-01-20T23:33:51.129Z,101131.22
2023-01-20T23:36:24.241Z,101119.94
2023-01-20T23:38:54.580Z,101122.13
2023-01-20T23:41:23.052Z,101111.69
2023-01-20T23:43:50.411Z,101125.88
2023-01-20T23:46:18.101Z,101119.00
2023-01-20T23:48:47.018Z,101108.72
2023-01-20T23:51:14.749Z,101123.63
2023-01-20T23:53:42.184Z,101112.81
2023-01-20T23:56:16.330Z,101122.31
2023-01-20T23:58:44.313Z,101111.47
